Archival Weather

Heathrow

London, United Kingdom (EGLL)

Report from: Sunday, March 19, 2023 10:50 AM GMT
Current time: Friday, April 19, 2024 10:30 AM BST

Current weather – Weather history – Daily summaries
Weather forecast

Temperature8.0°C (46.4°F)
Wind chill5.5°C (41.9°F)
Dew point4.0°C (39.2°F)
Winds 8 kts (4.1 m/s, 9.2 mph) West-Northwest (290°)
Visibility6.2 mi. (10 km)
Clouds Scattered clouds 2,400 ft. (732 m)
Ceiling: Overcast 3,000 ft. (914 m)
Altimeter30.03 in.Hg (1017 mB)
Relative humidity76 %
Density altitude-848 ft. (-259 m)
Remarks Fully automated report
No significant changes expected in the next two hours
Flight conditions Visual Meteorological Conditions
Raw dataEGLL 191050Z AUTO 29008KT 9999 SCT024 OVC030 08/04 Q1017 NOSIG
An error has occurred. This application may no longer respond until reloaded. Reload 🗙